Heswall, United Kingdom
Current Conditions -  °F | °C
As of 3:50 AM on Saturday 20 Dec 2014 (Local Time) from EGGP Reporting Station
Rain Showers Rain Showers  
Wind Chill: 35°   Ceiling: Unl
Heat Index: 45°   Visibility: 6mi
Dew Point: 41°   Wind: 29mph
Humidity: 87%   Direction: 270°W
Pressure: 30.12"   Gusts: 40mph
Location:  53.34°N, 3.1°W
Report Text: EGGP 200350Z 27025G35KT 9999 -SHRA FEW020 SCT045 07/05 Q1020
Loading
Personal Weather Stations






























Interactive Weather Map New forecast layout! Learn more

10-Day Weather Forecast

Advertisements
Track Severe Weather on mobile